createdAt,value
2023-05-05T00:01:31.064Z,24.45
2023-05-05T00:03:58.008Z,21.25
2023-05-05T00:06:25.078Z,27.98
2023-05-05T00:08:51.897Z,23.15
2023-05-05T00:11:18.793Z,23.48
2023-05-05T00:13:45.864Z,23.40
2023-05-05T00:16:12.687Z,26.23
2023-05-05T00:18:39.619Z,21.92
2023-05-05T00:21:06.963Z,25.23
2023-05-05T00:23:33.913Z,26.02
2023-05-05T00:26:00.910Z,23.05
2023-05-05T00:28:27.912Z,24.60
2023-05-05T00:30:54.921Z,25.17
2023-05-05T00:33:22.177Z,28.50
2023-05-05T00:35:49.172Z,26.88
2023-05-05T00:38:16.123Z,27.63
2023-05-05T00:40:43.245Z,29.02
2023-05-05T00:43:10.243Z,29.98
2023-05-05T00:45:39.147Z,28.63
2023-05-05T00:48:06.714Z,29.98
2023-05-05T00:50:35.007Z,26.45
2023-05-05T00:53:04.121Z,27.75
2023-05-05T00:55:31.828Z,27.85
2023-05-05T00:57:59.796Z,25.85
2023-05-05T01:03:02.424Z,25.15
2023-05-05T01:05:42.309Z,24.30
2023-05-05T01:08:44.066Z,22.52
2023-05-05T01:11:31.202Z,23.67
2023-05-05T01:16:41.745Z,27.27
2023-05-05T01:19:38.551Z,24.73
2023-05-05T01:22:09.142Z,25.23
2023-05-05T01:24:45.271Z,24.92
2023-05-05T01:27:34.345Z,28.55
2023-05-05T01:30:10.770Z,24.58
2023-05-05T01:32:48.091Z,21.80
2023-05-05T01:35:37.983Z,23.90
2023-05-05T01:38:21.856Z,23.85
2023-05-05T01:40:56.457Z,30.33
2023-05-05T01:43:24.512Z,25.00
2023-05-05T01:45:53.393Z,25.70
2023-05-05T01:48:22.397Z,29.20
2023-05-05T01:50:52.312Z,22.80
2023-05-05T01:53:22.843Z,21.48
2023-05-05T01:55:50.879Z,26.70
2023-05-05T01:58:18.608Z,17.63
2023-05-05T02:00:47.304Z,20.83
2023-05-05T02:03:15.984Z,23.42
2023-05-05T02:05:44.726Z,20.20
2023-05-05T02:08:12.941Z,20.15
2023-05-05T02:10:41.128Z,22.50
2023-05-05T02:13:10.792Z,21.17
2023-05-05T02:15:38.770Z,20.48
2023-05-05T02:18:06.672Z,22.08
2023-05-05T02:20:34.282Z,21.17
2023-05-05T02:23:01.464Z,20.83
2023-05-05T02:25:37.252Z,21.38
2023-05-05T02:28:06.312Z,22.40
2023-05-05T02:30:37.744Z,20.58
2023-05-05T02:33:11.609Z,22.08
2023-05-05T02:35:41.153Z,19.00
2023-05-05T02:38:17.460Z,21.83
2023-05-05T02:40:46.850Z,19.83
2023-05-05T02:43:18.411Z,21.58
2023-05-05T02:45:45.903Z,20.65
2023-05-05T02:48:15.701Z,22.20
2023-05-05T02:50:42.628Z,16.77
2023-05-05T02:53:09.755Z,17.60
2023-05-05T02:55:44.031Z,21.13
2023-05-05T02:58:26.082Z,20.92
2023-05-05T03:01:01.662Z,21.52
2023-05-05T03:03:59.773Z,22.10
2023-05-05T03:06:28.863Z,20.02
2023-05-05T03:09:08.254Z,25.55
2023-05-05T03:12:13.111Z,19.58
2023-05-05T03:14:43.408Z,22.45
2023-05-05T03:17:12.299Z,19.13
2023-05-05T03:19:43.278Z,19.70
2023-05-05T03:22:10.975Z,18.52
2023-05-05T03:24:37.909Z,17.02
2023-05-05T03:27:04.848Z,20.05
2023-05-05T03:29:31.808Z,17.58
2023-05-05T03:31:59.508Z,18.83
2023-05-05T03:34:26.334Z,16.63
2023-05-05T03:36:53.354Z,18.95
2023-05-05T03:39:20.150Z,16.55
2023-05-05T03:41:47.299Z,20.35
2023-05-05T03:44:14.136Z,15.90
2023-05-05T03:46:40.936Z,19.58
2023-05-05T03:49:09.919Z,16.63
2023-05-05T03:51:37.548Z,17.45
2023-05-05T03:54:04.738Z,15.23
2023-05-05T03:56:31.828Z,15.38
2023-05-05T03:58:58.933Z,17.85
2023-05-05T04:01:25.888Z,18.75
2023-05-05T04:03:53.035Z,16.52
2023-05-05T04:06:19.957Z,22.63
2023-05-05T04:08:46.789Z,23.40
2023-05-05T04:11:13.690Z,23.30
2023-05-05T04:13:40.599Z,19.60
2023-05-05T04:16:08.988Z,25.30
2023-05-05T04:18:36.350Z,24.45
2023-05-05T04:21:03.384Z,20.67
2023-05-05T04:23:30.301Z,17.58
2023-05-05T04:25:57.680Z,17.30
2023-05-05T04:28:24.660Z,16.98
2023-05-05T04:30:51.735Z,20.20
2023-05-05T04:33:18.673Z,17.48
2023-05-05T04:35:45.661Z,23.70
2023-05-05T04:38:12.690Z,18.88
2023-05-05T04:40:41.129Z,23.95
2023-05-05T04:43:08.019Z,21.02
2023-05-05T04:45:34.824Z,18.88
2023-05-05T04:48:01.988Z,25.75
2023-05-05T04:50:28.878Z,19.38
2023-05-05T04:52:56.504Z,20.08
2023-05-05T04:55:23.490Z,23.25
2023-05-05T04:57:50.342Z,23.98
2023-05-05T05:00:17.448Z,21.23
2023-05-05T05:02:44.722Z,24.40
2023-05-05T05:05:11.646Z,24.00
2023-05-05T05:07:38.417Z,19.83
2023-05-05T05:10:06.034Z,22.67
2023-05-05T05:12:33.061Z,20.73
2023-05-05T05:14:59.906Z,22.67
2023-05-05T05:17:27.163Z,19.65
2023-05-05T05:19:55.472Z,19.80
2023-05-05T05:22:22.398Z,20.73
2023-05-05T05:24:49.257Z,17.77
2023-05-05T05:27:16.273Z,19.77
2023-05-05T05:29:43.891Z,17.75
2023-05-05T05:32:11.019Z,18.23
2023-05-05T05:34:37.876Z,21.77
2023-05-05T05:37:04.718Z,17.05
2023-05-05T05:39:31.589Z,18.05
2023-05-05T05:41:58.400Z,17.30
2023-05-05T05:44:25.172Z,32.38
2023-05-05T05:46:52.134Z,20.50
2023-05-05T05:49:18.952Z,17.83
2023-05-05T05:51:45.766Z,22.13
2023-05-05T05:54:12.719Z,17.77
2023-05-05T05:56:39.754Z,16.58
2023-05-05T05:59:08.831Z,20.67
2023-05-05T06:01:35.896Z,16.23
2023-05-05T06:04:02.794Z,16.73
2023-05-05T06:06:29.755Z,15.27
2023-05-05T06:08:56.706Z,14.27
2023-05-05T06:11:23.534Z,14.82
2023-05-05T06:13:50.736Z,18.52
2023-05-05T06:16:17.635Z,16.27
2023-05-05T06:18:44.549Z,14.00
2023-05-05T06:21:12.340Z,17.00
2023-05-05T06:23:39.448Z,17.40
2023-05-05T06:26:06.409Z,17.23
2023-05-05T06:28:33.358Z,17.33
2023-05-05T06:31:00.222Z,15.02
2023-05-05T06:33:27.268Z,16.80
2023-05-05T06:35:54.490Z,13.88
2023-05-05T06:38:21.858Z,14.40
2023-05-05T06:40:51.843Z,14.73
2023-05-05T06:43:18.811Z,18.50
2023-05-05T06:45:46.253Z,13.45
2023-05-05T06:48:13.182Z,18.55
2023-05-05T06:50:40.041Z,15.27
2023-05-05T06:53:06.956Z,13.10
2023-05-05T06:55:33.816Z,12.88
2023-05-05T06:58:01.038Z,14.27
2023-05-05T07:00:27.929Z,12.25
2023-05-05T07:02:54.835Z,14.82
2023-05-05T07:05:21.935Z,16.70
2023-05-05T07:07:53.912Z,15.55
2023-05-05T07:10:22.796Z,12.13
2023-05-05T07:12:50.460Z,12.15
2023-05-05T07:15:27.384Z,14.48
2023-05-05T07:17:56.723Z,24.17
2023-05-05T07:20:24.285Z,13.77
2023-05-05T07:22:51.312Z,16.23
2023-05-05T07:25:18.380Z,19.70
2023-05-05T07:27:45.584Z,17.02
2023-05-05T07:30:15.531Z,19.00
2023-05-05T07:32:45.090Z,20.00
2023-05-05T07:35:12.072Z,14.63
2023-05-05T07:37:38.850Z,18.50
2023-05-05T07:40:06.563Z,17.45
2023-05-05T07:42:33.520Z,19.27
2023-05-05T07:45:00.905Z,19.30
2023-05-05T07:47:27.721Z,14.30
2023-05-05T07:49:54.952Z,14.18
2023-05-05T07:52:33.209Z,24.92
2023-05-05T07:55:08.850Z,17.75
2023-05-05T07:57:35.722Z,17.85
2023-05-05T08:00:02.927Z,24.45
2023-05-05T08:02:30.151Z,15.63
2023-05-05T08:04:57.111Z,17.92
2023-05-05T08:07:24.021Z,20.05
2023-05-05T08:09:51.018Z,18.75
2023-05-05T08:12:19.270Z,13.60
2023-05-05T08:14:46.108Z,13.85
2023-05-05T08:17:12.975Z,14.18
2023-05-05T08:19:39.866Z,13.07
2023-05-05T08:22:06.711Z,10.40
2023-05-05T08:24:33.618Z,13.25
2023-05-05T08:27:00.856Z,11.27
2023-05-05T08:29:27.759Z,11.85
2023-05-05T08:31:54.762Z,11.98
2023-05-05T08:34:21.529Z,11.75
2023-05-05T08:36:50.523Z,15.60
2023-05-05T08:39:17.555Z,13.65
2023-05-05T08:41:44.603Z,10.13
2023-05-05T08:44:11.851Z,13.18
2023-05-05T08:46:40.119Z,11.40
2023-05-05T08:49:14.077Z,12.43
2023-05-05T08:51:44.508Z,13.73
2023-05-05T08:54:18.032Z,9.25
2023-05-05T08:56:47.540Z,10.43
2023-05-05T08:59:15.776Z,10.30
2023-05-05T09:01:44.560Z,13.30
2023-05-05T09:04:11.551Z,10.60
2023-05-05T09:06:38.593Z,16.05
2023-05-05T09:09:06.817Z,10.43
2023-05-05T09:11:35.545Z,8.50
2023-05-05T09:14:02.512Z,11.10
2023-05-05T09:16:29.551Z,12.15
2023-05-05T09:19:04.134Z,12.80
2023-05-05T09:21:32.339Z,14.65
2023-05-05T09:24:10.051Z,13.57
2023-05-05T09:26:39.727Z,15.63
2023-05-05T09:29:06.810Z,12.90
2023-05-05T09:31:35.222Z,11.10
2023-05-05T09:34:13.754Z,8.93
2023-05-05T09:36:47.623Z,10.45
2023-05-05T09:39:20.334Z,12.05
2023-05-05T09:41:47.417Z,13.55
2023-05-05T09:44:17.632Z,15.65
2023-05-05T09:46:55.425Z,13.15
2023-05-05T09:49:27.180Z,9.00
2023-05-05T09:51:55.239Z,13.57
2023-05-05T09:54:29.812Z,9.52
2023-05-05T09:56:57.493Z,10.23
2023-05-05T09:59:24.822Z,7.07
2023-05-05T10:01:52.473Z,7.32
2023-05-05T10:04:28.169Z,7.80
2023-05-05T10:06:56.899Z,6.85
2023-05-05T10:09:28.474Z,9.05
2023-05-05T10:12:00.054Z,6.32
2023-05-05T10:14:27.738Z,6.60
2023-05-05T10:16:55.742Z,7.60
2023-05-05T10:19:24.353Z,8.95
2023-05-05T10:21:53.443Z,8.77
2023-05-05T10:24:23.019Z,12.23
2023-05-05T10:26:52.124Z,10.35
2023-05-05T10:29:57.213Z,16.15
2023-05-05T10:32:55.953Z,12.55
2023-05-05T10:35:26.697Z,14.37
2023-05-05T10:37:54.715Z,8.02
2023-05-05T10:40:25.308Z,12.55
2023-05-05T10:42:54.414Z,13.63
2023-05-05T10:45:21.542Z,18.10
2023-05-05T10:47:51.306Z,10.38
2023-05-05T10:50:33.585Z,9.20
2023-05-05T10:53:12.577Z,10.30
2023-05-05T10:55:52.956Z,10.00
2023-05-05T10:58:44.103Z,7.97
2023-05-05T11:01:36.563Z,9.23
2023-05-05T11:04:19.392Z,5.13
2023-05-05T11:07:08.773Z,11.52
2023-05-05T11:09:55.196Z,8.45
2023-05-05T11:12:22.192Z,8.52
2023-05-05T11:15:26.942Z,11.90
2023-05-05T11:17:55.630Z,9.50
2023-05-05T11:20:57.735Z,8.88
2023-05-05T11:23:25.570Z,9.30
2023-05-05T11:25:53.217Z,8.20
2023-05-05T11:28:25.954Z,11.05
2023-05-05T11:30:56.063Z,9.25
2023-05-05T11:33:37.182Z,9.65
2023-05-05T11:36:08.762Z,6.25
2023-05-05T11:38:57.285Z,7.55
2023-05-05T11:41:33.359Z,9.63
2023-05-05T11:44:12.182Z,9.15
2023-05-05T11:47:04.546Z,7.13
2023-05-05T11:49:38.954Z,5.65
2023-05-05T11:52:10.352Z,8.07
2023-05-05T11:54:40.670Z,7.88
2023-05-05T11:57:08.579Z,4.93
2023-05-05T11:59:37.692Z,8.90
2023-05-05T12:02:05.251Z,6.25
2023-05-05T12:04:32.426Z,10.95
2023-05-05T12:07:00.193Z,8.05
2023-05-05T12:09:27.681Z,8.65
2023-05-05T12:11:56.624Z,6.32
2023-05-05T12:14:24.884Z,5.40
2023-05-05T12:16:58.713Z,7.93
2023-05-05T12:19:33.133Z,7.47
2023-05-05T12:22:01.948Z,10.68
2023-05-05T12:24:30.581Z,6.70
2023-05-05T12:27:11.119Z,7.50
2023-05-05T12:29:38.429Z,6.80
2023-05-05T12:32:05.764Z,6.18
2023-05-05T12:34:33.308Z,6.07
2023-05-05T12:37:01.129Z,9.45
2023-05-05T12:39:37.481Z,6.63
2023-05-05T12:42:05.145Z,5.13
2023-05-05T12:44:36.409Z,6.22
2023-05-05T12:47:03.915Z,6.13
2023-05-05T12:49:34.236Z,6.90
2023-05-05T12:52:02.782Z,8.60
2023-05-05T12:54:30.049Z,6.13
2023-05-05T12:56:57.469Z,5.07
2023-05-05T12:59:24.579Z,6.15
2023-05-05T13:02:17.250Z,8.70
2023-05-05T13:04:52.614Z,6.93
2023-05-05T13:07:21.252Z,8.07
2023-05-05T13:09:49.570Z,7.90
2023-05-05T13:12:18.095Z,7.45
2023-05-05T13:14:46.827Z,5.65
2023-05-05T13:17:14.293Z,5.60
2023-05-05T13:19:47.673Z,9.00
2023-05-05T13:22:14.649Z,6.50
2023-05-05T13:24:51.520Z,9.57
2023-05-05T13:27:20.135Z,6.38
2023-05-05T13:29:46.988Z,7.32
2023-05-05T13:32:14.086Z,5.07
2023-05-05T13:34:41.711Z,5.38
2023-05-05T13:37:08.843Z,5.32
2023-05-05T13:39:36.108Z,6.00
2023-05-05T13:42:03.206Z,5.28
2023-05-05T13:44:30.014Z,9.13
2023-05-05T13:46:56.965Z,4.88
2023-05-05T13:49:24.062Z,8.18
2023-05-05T13:51:50.932Z,8.75
2023-05-05T13:54:17.846Z,5.68
2023-05-05T13:56:44.781Z,5.22
2023-05-05T13:59:11.633Z,6.00
2023-05-05T14:01:38.708Z,5.88
2023-05-05T14:04:06.115Z,6.47
2023-05-05T14:06:33.878Z,5.47
2023-05-05T14:09:00.959Z,5.10
2023-05-05T14:11:27.967Z,10.57
2023-05-05T14:13:54.961Z,8.00
2023-05-05T14:16:22.119Z,10.50
2023-05-05T14:18:49.156Z,5.43
2023-05-05T14:21:15.964Z,5.22
2023-05-05T14:23:42.845Z,8.10
2023-05-05T14:26:09.852Z,5.85
2023-05-05T14:28:36.721Z,6.15
2023-05-05T14:31:03.607Z,5.25
2023-05-05T14:33:30.507Z,5.32
2023-05-05T14:35:57.677Z,5.28
2023-05-05T14:38:24.710Z,5.97
2023-05-05T14:40:54.746Z,6.30
2023-05-05T14:43:22.039Z,8.88
2023-05-05T14:45:49.009Z,3.90
2023-05-05T14:48:16.040Z,8.32
2023-05-05T14:50:42.927Z,6.10
2023-05-05T14:53:09.774Z,6.20
2023-05-05T14:55:37.422Z,4.18
2023-05-05T14:58:04.310Z,9.45
2023-05-05T15:00:31.274Z,8.00
2023-05-05T15:02:58.207Z,5.32
2023-05-05T15:05:25.114Z,6.05
2023-05-05T15:07:52.104Z,5.57
2023-05-05T15:10:21.227Z,9.43
2023-05-05T15:12:49.056Z,7.85
2023-05-05T15:15:15.927Z,7.70
2023-05-05T15:17:43.323Z,6.75
2023-05-05T15:20:10.635Z,6.18
2023-05-05T15:22:37.608Z,4.68
2023-05-05T15:25:04.972Z,7.20
2023-05-05T15:27:31.915Z,7.38
2023-05-05T15:29:58.836Z,7.13
2023-05-05T15:32:25.842Z,6.13
2023-05-05T15:34:52.760Z,8.00
2023-05-05T15:37:19.576Z,4.13
2023-05-05T15:39:46.516Z,5.82
2023-05-05T15:42:13.493Z,5.40
2023-05-05T15:44:40.373Z,7.65
2023-05-05T15:47:07.644Z,6.15
2023-05-05T15:49:34.622Z,7.63
2023-05-05T15:52:01.530Z,6.43
2023-05-05T15:54:28.553Z,6.13
2023-05-05T15:56:55.454Z,8.13
2023-05-05T15:59:22.952Z,7.50
2023-05-05T16:01:49.833Z,4.82
2023-05-05T16:04:16.818Z,8.52
2023-05-05T16:06:43.821Z,6.57
2023-05-05T16:09:10.735Z,7.00
2023-05-05T16:11:37.650Z,6.90
2023-05-05T16:14:04.553Z,6.95
2023-05-05T16:16:31.601Z,6.70
2023-05-05T16:18:58.523Z,8.20
2023-05-05T16:21:25.766Z,8.32
2023-05-05T16:23:52.664Z,7.35
2023-05-05T16:26:20.032Z,7.60
2023-05-05T16:28:47.084Z,8.27
2023-05-05T16:31:14.345Z,5.75
2023-05-05T16:33:43.661Z,7.20
2023-05-05T16:36:12.503Z,7.93
2023-05-05T16:38:40.517Z,4.28
2023-05-05T16:41:07.875Z,6.07
2023-05-05T16:43:37.283Z,8.38
2023-05-05T16:46:04.595Z,5.53
2023-05-05T16:48:31.804Z,6.45
2023-05-05T16:50:58.889Z,7.00
2023-05-05T16:53:26.151Z,11.00
2023-05-05T16:55:53.737Z,7.10
2023-05-05T16:58:22.942Z,11.15
2023-05-05T17:00:51.128Z,9.98
2023-05-05T17:03:21.646Z,13.48
2023-05-05T17:05:50.292Z,12.88
2023-05-05T17:08:17.604Z,11.45
2023-05-05T17:10:45.757Z,12.60
2023-05-05T17:13:13.985Z,13.60
2023-05-05T17:15:41.568Z,12.68
2023-05-05T17:18:08.931Z,7.72
2023-05-05T17:20:38.756Z,9.68
2023-05-05T17:23:05.807Z,9.55
2023-05-05T17:25:32.694Z,11.13
2023-05-05T17:27:59.535Z,8.48
2023-05-05T17:30:26.859Z,11.70
2023-05-05T17:32:53.839Z,10.25
2023-05-05T17:35:21.401Z,12.68
2023-05-05T17:37:48.386Z,11.60
2023-05-05T17:40:15.324Z,10.05
2023-05-05T17:42:42.287Z,10.75
2023-05-05T17:45:09.938Z,10.85
2023-05-05T17:47:37.543Z,11.35
2023-05-05T17:50:05.101Z,14.13
2023-05-05T17:52:32.069Z,12.35
2023-05-05T17:54:58.876Z,12.68
2023-05-05T17:57:25.670Z,13.40
2023-05-05T17:59:53.769Z,18.30
2023-05-05T18:02:20.956Z,16.52
2023-05-05T18:04:47.935Z,15.55
2023-05-05T18:07:14.957Z,18.05
2023-05-05T18:09:42.358Z,11.70
2023-05-05T18:12:09.232Z,13.13
2023-05-05T18:14:36.404Z,12.23
2023-05-05T18:17:03.333Z,13.95
2023-05-05T18:19:30.341Z,18.77
2023-05-05T18:21:59.993Z,20.15
2023-05-05T18:24:28.214Z,19.60
2023-05-05T18:26:55.055Z,20.75
2023-05-05T18:29:22.559Z,24.52
2023-05-05T18:31:53.155Z,16.23
2023-05-05T18:34:21.017Z,19.77
2023-05-05T18:36:51.010Z,19.55
2023-05-05T18:39:18.031Z,15.73
2023-05-05T18:41:44.939Z,23.10
2023-05-05T18:44:12.120Z,28.77
2023-05-05T18:46:39.011Z,31.67
2023-05-05T18:49:05.965Z,24.50
2023-05-05T18:51:32.895Z,23.08
2023-05-05T18:54:01.026Z,26.02
2023-05-05T18:56:28.034Z,25.77
2023-05-05T18:58:54.988Z,29.63
2023-05-05T19:01:22.317Z,25.85
2023-05-05T19:03:49.979Z,26.85
2023-05-05T19:06:17.634Z,30.55
2023-05-05T19:08:45.746Z,26.85
2023-05-05T19:11:14.686Z,23.02
2023-05-05T19:13:42.046Z,22.63
2023-05-05T19:16:08.913Z,20.30
2023-05-05T19:18:35.791Z,25.02
2023-05-05T19:21:02.776Z,21.77
2023-05-05T19:23:29.567Z,24.25
2023-05-05T19:25:56.539Z,23.27
2023-05-05T19:28:23.451Z,21.33
2023-05-05T19:30:50.261Z,21.05
2023-05-05T19:33:17.102Z,30.30
2023-05-05T19:35:44.770Z,20.40
2023-05-05T19:38:12.132Z,22.25
2023-05-05T19:40:39.887Z,23.13
2023-05-05T19:43:07.641Z,27.25
2023-05-05T19:45:34.499Z,23.90
2023-05-05T19:48:01.888Z,27.45
2023-05-05T19:50:30.883Z,34.63
2023-05-05T19:52:58.166Z,42.83
2023-05-05T19:55:25.067Z,36.35
2023-05-05T19:57:52.520Z,38.78
2023-05-05T20:00:19.923Z,43.58
2023-05-05T20:02:48.724Z,48.00
2023-05-05T20:05:17.611Z,44.78
2023-05-05T20:07:46.446Z,51.08
2023-05-05T20:10:13.722Z,41.45
2023-05-05T20:12:47.940Z,36.72
2023-05-05T20:15:19.407Z,44.45
2023-05-05T20:17:47.773Z,39.55
2023-05-05T20:20:21.146Z,40.17
2023-05-05T20:22:49.207Z,50.97
2023-05-05T20:25:18.993Z,42.30
2023-05-05T20:27:46.042Z,48.15
2023-05-05T20:30:13.551Z,42.28
2023-05-05T20:32:40.816Z,56.92
2023-05-05T20:35:08.476Z,47.40
2023-05-05T20:37:35.413Z,50.78
2023-05-05T20:40:02.464Z,49.08
2023-05-05T20:42:29.925Z,47.45
2023-05-05T20:44:57.088Z,42.05
2023-05-05T20:47:24.463Z,37.22
2023-05-05T20:49:52.540Z,42.00
2023-05-05T20:52:19.622Z,46.55
2023-05-05T20:54:46.635Z,40.05
2023-05-05T20:57:13.532Z,38.50
2023-05-05T20:59:40.543Z,36.03
2023-05-05T21:02:07.893Z,46.92
2023-05-05T21:04:34.840Z,39.97
2023-05-05T21:07:01.912Z,29.33
2023-05-05T21:09:29.139Z,28.73
2023-05-05T21:11:55.961Z,30.65
2023-05-05T21:14:23.587Z,30.08
2023-05-05T21:16:50.687Z,30.95
2023-05-05T21:19:29.849Z,33.65
2023-05-05T21:21:59.284Z,30.80
2023-05-05T21:24:26.230Z,33.90
2023-05-05T21:26:53.089Z,29.70
2023-05-05T21:29:19.918Z,32.90
2023-05-05T21:31:46.721Z,30.35
2023-05-05T21:34:13.601Z,31.42
2023-05-05T21:36:40.375Z,34.60
2023-05-05T21:39:07.200Z,27.15
2023-05-05T21:41:34.050Z,28.88
2023-05-05T21:44:00.923Z,27.52
2023-05-05T21:46:27.902Z,27.30
2023-05-05T21:48:54.842Z,27.65
2023-05-05T21:51:23.556Z,28.38
2023-05-05T21:53:50.521Z,34.83
2023-05-05T21:56:18.495Z,30.35
2023-05-05T21:58:45.406Z,33.95
2023-05-05T22:01:12.296Z,34.15
2023-05-05T22:03:39.330Z,31.75
2023-05-05T22:06:07.331Z,34.72
2023-05-05T22:08:34.213Z,37.15
2023-05-05T22:11:07.240Z,36.70
2023-05-05T22:13:34.130Z,36.95
2023-05-05T22:16:09.820Z,34.30
2023-05-05T22:18:37.072Z,34.93
2023-05-05T22:21:09.946Z,35.42
2023-05-05T22:23:42.070Z,48.10
2023-05-05T22:26:12.326Z,35.38
2023-05-05T22:28:39.275Z,31.48
2023-05-05T22:31:06.173Z,31.42
2023-05-05T22:33:34.322Z,27.25
2023-05-05T22:36:02.320Z,29.50
2023-05-05T22:38:29.441Z,29.10
2023-05-05T22:40:57.437Z,26.25
2023-05-05T22:43:24.333Z,29.60
2023-05-05T22:45:51.402Z,27.10
2023-05-05T22:48:18.450Z,26.05
2023-05-05T22:50:45.845Z,21.08
2023-05-05T22:53:14.720Z,22.00
2023-05-05T22:55:42.693Z,28.08
2023-05-05T22:58:10.634Z,25.58
2023-05-05T23:00:37.653Z,25.73
2023-05-05T23:03:04.873Z,34.33
2023-05-05T23:05:32.105Z,23.98
2023-05-05T23:08:01.420Z,24.83
2023-05-05T23:10:30.232Z,30.25
2023-05-05T23:12:57.148Z,28.20
2023-05-05T23:15:25.159Z,31.80
2023-05-05T23:17:54.262Z,33.45
2023-05-05T23:20:21.558Z,27.63
2023-05-05T23:22:48.529Z,29.15
2023-05-05T23:25:15.314Z,30.45
2023-05-05T23:27:44.036Z,25.15
2023-05-05T23:30:17.054Z,21.38
2023-05-05T23:32:45.128Z,23.08
2023-05-05T23:35:12.328Z,21.20
2023-05-05T23:37:45.516Z,18.55
2023-05-05T23:40:13.491Z,17.65
2023-05-05T23:42:42.416Z,14.70
2023-05-05T23:45:10.034Z,17.75
2023-05-05T23:47:37.254Z,16.58
2023-05-05T23:50:04.544Z,19.67
2023-05-05T23:52:31.492Z,13.70
2023-05-05T23:54:59.552Z,15.38
2023-05-05T23:57:26.516Z,12.57
2023-05-05T23:59:59.478Z,14.32
